sensor_id;sensor_type;location;lat;lon;timestamp;temperature;humidity
84265;DHT22;74412;45.626;5.108;2024-02-21T00:00:12;8.17;70.76
84265;DHT22;74412;45.626;5.108;2024-02-21T00:02:38;8.14;70.73
84265;DHT22;74412;45.626;5.108;2024-02-21T00:05:05;8.16;70.78
84265;DHT22;74412;45.626;5.108;2024-02-21T00:07:32;8.17;70.70
84265;DHT22;74412;45.626;5.108;2024-02-21T00:09:59;8.13;70.69
84265;DHT22;74412;45.626;5.108;2024-02-21T00:12:27;8.12;70.70
84265;DHT22;74412;45.626;5.108;2024-02-21T00:14:53;8.16;70.78
84265;DHT22;74412;45.626;5.108;2024-02-21T00:17:20;8.13;70.79
84265;DHT22;74412;45.626;5.108;2024-02-21T00:19:47;8.13;70.80
84265;DHT22;74412;45.626;5.108;2024-02-21T00:22:13;8.13;70.91
84265;DHT22;74412;45.626;5.108;2024-02-21T00:24:40;8.13;70.75
84265;DHT22;74412;45.626;5.108;2024-02-21T00:27:07;8.13;70.84
84265;DHT22;74412;45.626;5.108;2024-02-21T00:29:35;8.14;70.76
84265;DHT22;74412;45.626;5.108;2024-02-21T00:32:02;8.14;70.84
84265;DHT22;74412;45.626;5.108;2024-02-21T00:34:28;8.13;70.78
84265;DHT22;74412;45.626;5.108;2024-02-21T00:36:55;8.14;70.71
84265;DHT22;74412;45.626;5.108;2024-02-21T00:39:22;8.10;70.73
84265;DHT22;74412;45.626;5.108;2024-02-21T00:41:49;8.10;70.73
84265;DHT22;74412;45.626;5.108;2024-02-21T00:44:15;8.09;70.83
84265;DHT22;74412;45.626;5.108;2024-02-21T00:46:43;8.06;70.83
84265;DHT22;74412;45.626;5.108;2024-02-21T00:49:10;8.05;70.86
84265;DHT22;74412;45.626;5.108;2024-02-21T00:51:36;8.05;70.77
84265;DHT22;74412;45.626;5.108;2024-02-21T00:54:03;8.02;70.79
84265;DHT22;74412;45.626;5.108;2024-02-21T00:56:30;7.96;70.97
84265;DHT22;74412;45.626;5.108;2024-02-21T00:58:56;7.98;71.23
84265;DHT22;74412;45.626;5.108;2024-02-21T01:01:24;7.96;71.07
84265;DHT22;74412;45.626;5.108;2024-02-21T01:03:53;7.96;71.12
84265;DHT22;74412;45.626;5.108;2024-02-21T01:06:19;7.92;71.25
84265;DHT22;74412;45.626;5.108;2024-02-21T01:08:46;7.89;71.29
84265;DHT22;74412;45.626;5.108;2024-02-21T01:11:13;7.86;71.34
84265;DHT22;74412;45.626;5.108;2024-02-21T01:13:40;7.83;71.49
84265;DHT22;74412;45.626;5.108;2024-02-21T01:16:06;7.83;71.52
84265;DHT22;74412;45.626;5.108;2024-02-21T01:18:33;7.82;71.58
84265;DHT22;74412;45.626;5.108;2024-02-21T01:21:01;7.85;71.48
84265;DHT22;74412;45.626;5.108;2024-02-21T01:23:28;7.85;71.49
84265;DHT22;74412;45.626;5.108;2024-02-21T01:25:55;7.83;71.53
84265;DHT22;74412;45.626;5.108;2024-02-21T01:28:22;7.82;71.56
84265;DHT22;74412;45.626;5.108;2024-02-21T01:30:48;7.83;71.57
84265;DHT22;74412;45.626;5.108;2024-02-21T01:33:15;7.82;71.50
84265;DHT22;74412;45.626;5.108;2024-02-21T01:35:41;7.81;71.34
84265;DHT22;74412;45.626;5.108;2024-02-21T01:38:09;7.81;71.41
84265;DHT22;74412;45.626;5.108;2024-02-21T01:40:36;7.81;71.37
84265;DHT22;74412;45.626;5.108;2024-02-21T01:43:03;7.78;71.27
84265;DHT22;74412;45.626;5.108;2024-02-21T01:45:30;7.75;71.29
84265;DHT22;74412;45.626;5.108;2024-02-21T01:47:57;7.75;71.35
84265;DHT22;74412;45.626;5.108;2024-02-21T01:50:24;7.75;71.38
84265;DHT22;74412;45.626;5.108;2024-02-21T01:52:51;7.71;71.43
84265;DHT22;74412;45.626;5.108;2024-02-21T01:55:19;7.69;71.63
84265;DHT22;74412;45.626;5.108;2024-02-21T01:57:46;7.68;71.68
84265;DHT22;74412;45.626;5.108;2024-02-21T02:00:14;7.69;71.74
84265;DHT22;74412;45.626;5.108;2024-02-21T02:02:41;7.68;71.62
84265;DHT22;74412;45.626;5.108;2024-02-21T02:05:09;7.62;71.63
84265;DHT22;74412;45.626;5.108;2024-02-21T02:07:36;7.62;71.77
84265;DHT22;74412;45.626;5.108;2024-02-21T02:10:03;7.59;71.82
84265;DHT22;74412;45.626;5.108;2024-02-21T02:12:31;7.59;71.73
84265;DHT22;74412;45.626;5.108;2024-02-21T02:14:58;7.58;71.72
84265;DHT22;74412;45.626;5.108;2024-02-21T02:17:25;7.57;71.76
84265;DHT22;74412;45.626;5.108;2024-02-21T02:19:52;7.54;71.77
84265;DHT22;74412;45.626;5.108;2024-02-21T02:22:23;7.54;71.78
84265;DHT22;74412;45.626;5.108;2024-02-21T02:24:52;7.51;71.81
84265;DHT22;74412;45.626;5.108;2024-02-21T02:27:19;7.51;71.82
84265;DHT22;74412;45.626;5.108;2024-02-21T02:29:48;7.50;71.79
84265;DHT22;74412;45.626;5.108;2024-02-21T02:32:15;7.48;71.91
84265;DHT22;74412;45.626;5.108;2024-02-21T02:34:41;7.48;71.66
84265;DHT22;74412;45.626;5.108;2024-02-21T02:37:08;7.47;71.67
84265;DHT22;74412;45.626;5.108;2024-02-21T02:39:35;7.44;71.84
84265;DHT22;74412;45.626;5.108;2024-02-21T02:42:03;7.43;71.73
84265;DHT22;74412;45.626;5.108;2024-02-21T02:44:30;7.46;71.86
84265;DHT22;74412;45.626;5.108;2024-02-21T02:46:57;7.41;71.69
84265;DHT22;74412;45.626;5.108;2024-02-21T02:49:24;7.38;71.65
84265;DHT22;74412;45.626;5.108;2024-02-21T02:51:50;7.38;71.56
84265;DHT22;74412;45.626;5.108;2024-02-21T02:54:17;7.38;71.50
84265;DHT22;74412;45.626;5.108;2024-02-21T02:56:44;7.37;71.48
84265;DHT22;74412;45.626;5.108;2024-02-21T02:59:12;7.35;71.65
84265;DHT22;74412;45.626;5.108;2024-02-21T03:01:38;7.32;71.48
84265;DHT22;74412;45.626;5.108;2024-02-21T03:04:05;7.28;71.54
84265;DHT22;74412;45.626;5.108;2024-02-21T03:06:31;7.26;71.83
84265;DHT22;74412;45.626;5.108;2024-02-21T03:08:58;7.24;71.89
84265;DHT22;74412;45.626;5.108;2024-02-21T03:11:25;7.18;71.70
84265;DHT22;74412;45.626;5.108;2024-02-21T03:13:54;7.16;71.69
84265;DHT22;74412;45.626;5.108;2024-02-21T03:16:22;7.16;71.69
84265;DHT22;74412;45.626;5.108;2024-02-21T03:18:49;7.11;71.76
84265;DHT22;74412;45.626;5.108;2024-02-21T03:21:15;7.13;71.92
84265;DHT22;74412;45.626;5.108;2024-02-21T03:23:42;7.13;71.94
84265;DHT22;74412;45.626;5.108;2024-02-21T03:26:08;7.10;71.76
84265;DHT22;74412;45.626;5.108;2024-02-21T03:28:35;7.10;72.04
84265;DHT22;74412;45.626;5.108;2024-02-21T03:31:02;7.08;72.06
84265;DHT22;74412;45.626;5.108;2024-02-21T03:33:30;7.08;72.19
84265;DHT22;74412;45.626;5.108;2024-02-21T03:35:57;7.07;72.07
84265;DHT22;74412;45.626;5.108;2024-02-21T03:38:23;7.04;72.08
84265;DHT22;74412;45.626;5.108;2024-02-21T03:40:51;7.03;72.16
84265;DHT22;74412;45.626;5.108;2024-02-21T03:43:17;7.04;72.19
84265;DHT22;74412;45.626;5.108;2024-02-21T03:45:44;7.04;72.23
84265;DHT22;74412;45.626;5.108;2024-02-21T03:48:10;7.06;72.25
84265;DHT22;74412;45.626;5.108;2024-02-21T03:50:38;7.07;72.25
84265;DHT22;74412;45.626;5.108;2024-02-21T03:53:05;7.10;72.39
84265;DHT22;74412;45.626;5.108;2024-02-21T03:55:31;7.08;72.43
84265;DHT22;74412;45.626;5.108;2024-02-21T03:57:58;7.10;72.38
84265;DHT22;74412;45.626;5.108;2024-02-21T04:00:25;7.11;72.27
84265;DHT22;74412;45.626;5.108;2024-02-21T04:02:51;7.10;72.31
84265;DHT22;74412;45.626;5.108;2024-02-21T04:05:18;7.08;72.30
84265;DHT22;74412;45.626;5.108;2024-02-21T04:07:46;7.08;72.14
84265;DHT22;74412;45.626;5.108;2024-02-21T04:10:13;7.07;72.21
84265;DHT22;74412;45.626;5.108;2024-02-21T04:12:39;7.08;72.32
84265;DHT22;74412;45.626;5.108;2024-02-21T04:15:06;7.08;72.16
84265;DHT22;74412;45.626;5.108;2024-02-21T04:17:33;7.04;72.17
84265;DHT22;74412;45.626;5.108;2024-02-21T04:20:05;7.01;72.29
84265;DHT22;74412;45.626;5.108;2024-02-21T04:22:33;7.03;72.26
84265;DHT22;74412;45.626;5.108;2024-02-21T04:25:01;7.01;72.28
84265;DHT22;74412;45.626;5.108;2024-02-21T04:27:27;7.04;72.27
84265;DHT22;74412;45.626;5.108;2024-02-21T04:29:54;6.99;72.45
84265;DHT22;74412;45.626;5.108;2024-02-21T04:32:21;7.03;72.53
84265;DHT22;74412;45.626;5.108;2024-02-21T04:34:48;7.01;72.59
84265;DHT22;74412;45.626;5.108;2024-02-21T04:37:14;7.00;72.57
84265;DHT22;74412;45.626;5.108;2024-02-21T04:39:41;7.01;72.64
84265;DHT22;74412;45.626;5.108;2024-02-21T04:42:09;7.03;72.70
84265;DHT22;74412;45.626;5.108;2024-02-21T04:44:36;7.01;72.81
84265;DHT22;74412;45.626;5.108;2024-02-21T04:47:03;7.01;72.97
84265;DHT22;74412;45.626;5.108;2024-02-21T04:49:30;7.00;73.07
84265;DHT22;74412;45.626;5.108;2024-02-21T04:51:57;7.01;73.14
84265;DHT22;74412;45.626;5.108;2024-02-21T04:54:23;7.00;73.16
84265;DHT22;74412;45.626;5.108;2024-02-21T04:56:50;7.00;73.14
84265;DHT22;74412;45.626;5.108;2024-02-21T04:59:18;6.99;73.14
84265;DHT22;74412;45.626;5.108;2024-02-21T05:01:44;6.97;73.23
84265;DHT22;74412;45.626;5.108;2024-02-21T05:04:11;6.99;73.19
84265;DHT22;74412;45.626;5.108;2024-02-21T05:06:38;6.94;73.32
84265;DHT22;74412;45.626;5.108;2024-02-21T05:09:05;6.99;73.22
84265;DHT22;74412;45.626;5.108;2024-02-21T05:11:32;6.99;73.08
84265;DHT22;74412;45.626;5.108;2024-02-21T05:13:58;6.94;73.06
84265;DHT22;74412;45.626;5.108;2024-02-21T05:16:27;6.93;73.04
84265;DHT22;74412;45.626;5.108;2024-02-21T05:18:53;6.93;73.01
84265;DHT22;74412;45.626;5.108;2024-02-21T05:21:22;6.93;73.08
84265;DHT22;74412;45.626;5.108;2024-02-21T05:23:49;6.90;73.19
84265;DHT22;74412;45.626;5.108;2024-02-21T05:26:20;6.92;73.03
84265;DHT22;74412;45.626;5.108;2024-02-21T05:28:48;6.87;72.95
84265;DHT22;74412;45.626;5.108;2024-02-21T05:31:15;6.86;73.00
84265;DHT22;74412;45.626;5.108;2024-02-21T05:33:43;6.84;73.24
84265;DHT22;74412;45.626;5.108;2024-02-21T05:36:09;6.82;73.32
84265;DHT22;74412;45.626;5.108;2024-02-21T05:38:36;6.82;73.31
84265;DHT22;74412;45.626;5.108;2024-02-21T05:41:03;6.79;73.29
84265;DHT22;74412;45.626;5.108;2024-02-21T05:43:30;6.80;73.25
84265;DHT22;74412;45.626;5.108;2024-02-21T05:45:57;6.77;73.28
84265;DHT22;74412;45.626;5.108;2024-02-21T05:48:24;6.77;73.18
84265;DHT22;74412;45.626;5.108;2024-02-21T05:50:52;6.76;73.28
84265;DHT22;74412;45.626;5.108;2024-02-21T05:53:19;6.75;73.56
84265;DHT22;74412;45.626;5.108;2024-02-21T05:55:45;6.75;73.51
84265;DHT22;74412;45.626;5.108;2024-02-21T05:58:12;6.76;73.39
84265;DHT22;74412;45.626;5.108;2024-02-21T06:00:39;6.73;73.43
84265;DHT22;74412;45.626;5.108;2024-02-21T06:03:05;6.76;73.46
84265;DHT22;74412;45.626;5.108;2024-02-21T06:05:36;6.72;73.39
84265;DHT22;74412;45.626;5.108;2024-02-21T06:08:05;6.62;73.51
84265;DHT22;74412;45.626;5.108;2024-02-21T06:10:33;6.59;73.68
84265;DHT22;74412;45.626;5.108;2024-02-21T06:12:59;6.56;73.89
84265;DHT22;74412;45.626;5.108;2024-02-21T06:15:26;6.59;73.99
84265;DHT22;74412;45.626;5.108;2024-02-21T06:17:53;6.57;74.06
84265;DHT22;74412;45.626;5.108;2024-02-21T06:20:19;6.57;74.00
84265;DHT22;74412;45.626;5.108;2024-02-21T06:22:46;6.54;73.99
84265;DHT22;74412;45.626;5.108;2024-02-21T06:25:14;6.57;73.94
84265;DHT22;74412;45.626;5.108;2024-02-21T06:27:41;6.57;73.95
84265;DHT22;74412;45.626;5.108;2024-02-21T06:30:08;6.53;73.91
84265;DHT22;74412;45.626;5.108;2024-02-21T06:32:35;6.49;74.00
84265;DHT22;74412;45.626;5.108;2024-02-21T06:35:02;6.49;74.20
84265;DHT22;74412;45.626;5.108;2024-02-21T06:37:28;6.48;74.26
84265;DHT22;74412;45.626;5.108;2024-02-21T06:39:55;6.49;74.33
84265;DHT22;74412;45.626;5.108;2024-02-21T06:42:24;6.48;74.57
84265;DHT22;74412;45.626;5.108;2024-02-21T06:44:52;6.45;74.66
84265;DHT22;74412;45.626;5.108;2024-02-21T06:47:18;6.46;74.75
84265;DHT22;74412;45.626;5.108;2024-02-21T06:49:48;6.43;74.87
84265;DHT22;74412;45.626;5.108;2024-02-21T06:52:16;6.41;74.98
84265;DHT22;74412;45.626;5.108;2024-02-21T06:54:45;6.45;75.04
84265;DHT22;74412;45.626;5.108;2024-02-21T06:57:12;6.43;75.09
84265;DHT22;74412;45.626;5.108;2024-02-21T06:59:40;6.43;75.06
84265;DHT22;74412;45.626;5.108;2024-02-21T07:02:06;6.45;75.14
84265;DHT22;74412;45.626;5.108;2024-02-21T07:04:34;6.45;75.19
84265;DHT22;74412;45.626;5.108;2024-02-21T07:07:00;6.46;75.27
84265;DHT22;74412;45.626;5.108;2024-02-21T07:09:27;6.50;75.28
84265;DHT22;74412;45.626;5.108;2024-02-21T07:11:57;6.52;75.20
84265;DHT22;74412;45.626;5.108;2024-02-21T07:14:23;6.52;75.41
84265;DHT22;74412;45.626;5.108;2024-02-21T07:16:52;6.53;75.38
84265;DHT22;74412;45.626;5.108;2024-02-21T07:19:20;6.56;75.47
84265;DHT22;74412;45.626;5.108;2024-02-21T07:21:46;6.56;75.66
84265;DHT22;74412;45.626;5.108;2024-02-21T07:24:13;6.59;75.65
84265;DHT22;74412;45.626;5.108;2024-02-21T07:26:41;6.61;75.60
84265;DHT22;74412;45.626;5.108;2024-02-21T07:29:08;6.68;75.60
84265;DHT22;74412;45.626;5.108;2024-02-21T07:31:39;6.69;75.66
84265;DHT22;74412;45.626;5.108;2024-02-21T07:34:07;6.68;75.89
84265;DHT22;74412;45.626;5.108;2024-02-21T07:36:34;6.72;75.76
84265;DHT22;74412;45.626;5.108;2024-02-21T07:39:02;6.73;76.01
84265;DHT22;74412;45.626;5.108;2024-02-21T07:41:29;6.77;75.97
84265;DHT22;74412;45.626;5.108;2024-02-21T07:43:56;6.79;76.17
84265;DHT22;74412;45.626;5.108;2024-02-21T07:46:23;6.79;76.23
84265;DHT22;74412;45.626;5.108;2024-02-21T07:48:50;6.83;76.49
84265;DHT22;74412;45.626;5.108;2024-02-21T07:51:18;6.84;76.63
84265;DHT22;74412;45.626;5.108;2024-02-21T07:53:45;6.90;76.73
84265;DHT22;74412;45.626;5.108;2024-02-21T07:56:13;6.92;76.78
84265;DHT22;74412;45.626;5.108;2024-02-21T07:58:39;6.96;76.55
84265;DHT22;74412;45.626;5.108;2024-02-21T08:01:06;6.99;76.45
84265;DHT22;74412;45.626;5.108;2024-02-21T08:03:33;7.03;76.39
84265;DHT22;74412;45.626;5.108;2024-02-21T08:05:59;7.08;76.38
84265;DHT22;74412;45.626;5.108;2024-02-21T08:08:28;7.11;76.30
84265;DHT22;74412;45.626;5.108;2024-02-21T08:10:54;7.17;76.51
84265;DHT22;74412;45.626;5.108;2024-02-21T08:13:21;7.17;76.56
84265;DHT22;74412;45.626;5.108;2024-02-21T08:15:48;7.20;76.60
84265;DHT22;74412;45.626;5.108;2024-02-21T08:18:14;7.24;76.81
84265;DHT22;74412;45.626;5.108;2024-02-21T08:20:41;7.28;76.67
84265;DHT22;74412;45.626;5.108;2024-02-21T08:23:08;7.32;76.68
84265;DHT22;74412;45.626;5.108;2024-02-21T08:25:35;7.37;76.72
84265;DHT22;74412;45.626;5.108;2024-02-21T08:28:02;7.41;77.02
84265;DHT22;74412;45.626;5.108;2024-02-21T08:30:29;7.48;76.98
84265;DHT22;74412;45.626;5.108;2024-02-21T08:32:56;7.52;77.06
84265;DHT22;74412;45.626;5.108;2024-02-21T08:35:22;7.57;77.29
84265;DHT22;74412;45.626;5.108;2024-02-21T08:37:49;7.64;77.68
84265;DHT22;74412;45.626;5.108;2024-02-21T08:40:16;7.71;77.35
84265;DHT22;74412;45.626;5.108;2024-02-21T08:42:47;7.77;77.49
84265;DHT22;74412;45.626;5.108;2024-02-21T08:45:14;7.86;77.52
84265;DHT22;74412;45.626;5.108;2024-02-21T08:47:41;7.91;77.55
84265;DHT22;74412;45.626;5.108;2024-02-21T08:50:08;8.01;77.64
84265;DHT22;74412;45.626;5.108;2024-02-21T08:52:36;8.07;77.71
84265;DHT22;74412;45.626;5.108;2024-02-21T08:55:03;8.16;77.64
84265;DHT22;74412;45.626;5.108;2024-02-21T08:57:30;8.26;77.85
84265;DHT22;74412;45.626;5.108;2024-02-21T09:00:03;8.34;77.84
84265;DHT22;74412;45.626;5.108;2024-02-21T09:02:35;8.46;76.93
84265;DHT22;74412;45.626;5.108;2024-02-21T09:05:02;8.56;77.17
84265;DHT22;74412;45.626;5.108;2024-02-21T09:07:30;8.68;77.34
84265;DHT22;74412;45.626;5.108;2024-02-21T09:09:57;8.74;77.01
84265;DHT22;74412;45.626;5.108;2024-02-21T09:12:23;8.88;76.01
84265;DHT22;74412;45.626;5.108;2024-02-21T09:14:50;8.97;75.75
84265;DHT22;74412;45.626;5.108;2024-02-21T09:17:18;9.10;75.03
84265;DHT22;74412;45.626;5.108;2024-02-21T09:19:45;9.18;74.46
84265;DHT22;74412;45.626;5.108;2024-02-21T09:22:12;9.27;74.25
84265;DHT22;74412;45.626;5.108;2024-02-21T09:24:39;9.35;74.47
84265;DHT22;74412;45.626;5.108;2024-02-21T09:27:05;9.48;74.68
84265;DHT22;74412;45.626;5.108;2024-02-21T09:29:32;9.60;74.91
84265;DHT22;74412;45.626;5.108;2024-02-21T09:31:59;9.76;74.75
84265;DHT22;74412;45.626;5.108;2024-02-21T09:34:27;9.92;74.63
84265;DHT22;74412;45.626;5.108;2024-02-21T09:36:54;10.09;73.94
84265;DHT22;74412;45.626;5.108;2024-02-21T09:39:20;10.23;73.03
84265;DHT22;74412;45.626;5.108;2024-02-21T09:41:50;10.37;73.00
84265;DHT22;74412;45.626;5.108;2024-02-21T09:44:21;10.51;72.91
84265;DHT22;74412;45.626;5.108;2024-02-21T09:46:52;10.68;72.23
84265;DHT22;74412;45.626;5.108;2024-02-21T09:49:31;10.81;72.60
84265;DHT22;74412;45.626;5.108;2024-02-21T09:52:00;10.94;73.24
84265;DHT22;74412;45.626;5.108;2024-02-21T09:54:28;11.12;73.14
84265;DHT22;74412;45.626;5.108;2024-02-21T09:56:55;11.28;72.17
84265;DHT22;74412;45.626;5.108;2024-02-21T09:59:22;11.40;72.01
84265;DHT22;74412;45.626;5.108;2024-02-21T10:01:50;11.52;72.47
84265;DHT22;74412;45.626;5.108;2024-02-21T10:04:17;11.67;71.84
84265;DHT22;74412;45.626;5.108;2024-02-21T10:06:46;11.80;70.93
84265;DHT22;74412;45.626;5.108;2024-02-21T10:09:20;11.97;70.57
84265;DHT22;74412;45.626;5.108;2024-02-21T10:11:48;12.07;69.82
84265;DHT22;74412;45.626;5.108;2024-02-21T10:14:15;12.17;69.65
84265;DHT22;74412;45.626;5.108;2024-02-21T10:16:42;12.23;69.33
84265;DHT22;74412;45.626;5.108;2024-02-21T10:19:16;12.31;68.65
84265;DHT22;74412;45.626;5.108;2024-02-21T10:21:43;12.35;68.85
84265;DHT22;74412;45.626;5.108;2024-02-21T10:24:12;12.37;67.79
84265;DHT22;74412;45.626;5.108;2024-02-21T10:26:38;12.35;67.79
84265;DHT22;74412;45.626;5.108;2024-02-21T10:29:05;12.35;68.13
84265;DHT22;74412;45.626;5.108;2024-02-21T10:31:32;12.35;67.66
84265;DHT22;74412;45.626;5.108;2024-02-21T10:33:59;12.40;67.99
84265;DHT22;74412;45.626;5.108;2024-02-21T10:36:28;12.41;67.61
84265;DHT22;74412;45.626;5.108;2024-02-21T10:38:55;12.44;67.89
84265;DHT22;74412;45.626;5.108;2024-02-21T10:41:24;12.51;66.84
84265;DHT22;74412;45.626;5.108;2024-02-21T10:43:53;12.58;67.66
84265;DHT22;74412;45.626;5.108;2024-02-21T10:46:21;12.64;67.12
84265;DHT22;74412;45.626;5.108;2024-02-21T10:48:55;12.71;66.94
84265;DHT22;74412;45.626;5.108;2024-02-21T10:51:24;12.79;65.54
84265;DHT22;74412;45.626;5.108;2024-02-21T10:54:04;12.91;66.28
84265;DHT22;74412;45.626;5.108;2024-02-21T10:56:35;13.00;66.00
84265;DHT22;74412;45.626;5.108;2024-02-21T10:59:07;13.12;64.16
84265;DHT22;74412;45.626;5.108;2024-02-21T11:01:34;13.19;62.77
84265;DHT22;74412;45.626;5.108;2024-02-21T11:04:04;13.27;63.90
84265;DHT22;74412;45.626;5.108;2024-02-21T11:06:32;13.37;62.94
84265;DHT22;74412;45.626;5.108;2024-02-21T11:09:03;13.43;61.41
84265;DHT22;74412;45.626;5.108;2024-02-21T11:11:34;13.50;62.37
84265;DHT22;74412;45.626;5.108;2024-02-21T11:14:10;13.61;60.98
84265;DHT22;74412;45.626;5.108;2024-02-21T11:16:38;13.67;62.31
84265;DHT22;74412;45.626;5.108;2024-02-21T11:19:08;13.74;61.01
84265;DHT22;74412;45.626;5.108;2024-02-21T11:21:37;13.81;61.59
84265;DHT22;74412;45.626;5.108;2024-02-21T11:24:04;13.88;60.17
84265;DHT22;74412;45.626;5.108;2024-02-21T11:26:33;13.92;60.42
84265;DHT22;74412;45.626;5.108;2024-02-21T11:29:00;13.98;59.17
84265;DHT22;74412;45.626;5.108;2024-02-21T11:31:38;14.04;60.00
84265;DHT22;74412;45.626;5.108;2024-02-21T11:34:08;14.07;58.98
84265;DHT22;74412;45.626;5.108;2024-02-21T11:36:34;14.05;58.98
84265;DHT22;74412;45.626;5.108;2024-02-21T11:39:03;14.08;59.04
84265;DHT22;74412;45.626;5.108;2024-02-21T11:41:30;14.12;59.04
84265;DHT22;74412;45.626;5.108;2024-02-21T11:43:58;14.17;58.89
84265;DHT22;74412;45.626;5.108;2024-02-21T11:46:25;14.20;58.98
84265;DHT22;74412;45.626;5.108;2024-02-21T11:48:52;14.25;59.39
84265;DHT22;74412;45.626;5.108;2024-02-21T11:51:24;14.31;60.42
84265;DHT22;74412;45.626;5.108;2024-02-21T11:53:51;14.36;59.53
84265;DHT22;74412;45.626;5.108;2024-02-21T11:56:18;14.39;59.00
84265;DHT22;74412;45.626;5.108;2024-02-21T11:58:45;14.42;58.73
84265;DHT22;74412;45.626;5.108;2024-02-21T12:01:14;14.44;57.41
84265;DHT22;74412;45.626;5.108;2024-02-21T12:03:42;14.46;57.62
84265;DHT22;74412;45.626;5.108;2024-02-21T12:06:15;14.44;56.48
84265;DHT22;74412;45.626;5.108;2024-02-21T12:08:45;14.46;57.40
84265;DHT22;74412;45.626;5.108;2024-02-21T12:11:21;14.46;57.65
84265;DHT22;74412;45.626;5.108;2024-02-21T12:13:58;14.46;56.78
84265;DHT22;74412;45.626;5.108;2024-02-21T12:16:27;14.51;56.50
84265;DHT22;74412;45.626;5.108;2024-02-21T12:18:54;14.52;55.95
84265;DHT22;74412;45.626;5.108;2024-02-21T12:21:24;14.52;54.86
84265;DHT22;74412;45.626;5.108;2024-02-21T12:23:50;14.55;53.27
84265;DHT22;74412;45.626;5.108;2024-02-21T12:26:17;14.53;54.75
84265;DHT22;74412;45.626;5.108;2024-02-21T12:28:43;14.56;55.39
84265;DHT22;74412;45.626;5.108;2024-02-21T12:31:10;14.62;52.53
84265;DHT22;74412;45.626;5.108;2024-02-21T12:33:38;14.59;52.69
84265;DHT22;74412;45.626;5.108;2024-02-21T12:36:05;14.62;52.46
84265;DHT22;74412;45.626;5.108;2024-02-21T12:38:34;14.62;52.88
84265;DHT22;74412;45.626;5.108;2024-02-21T12:41:00;14.63;53.11
84265;DHT22;74412;45.626;5.108;2024-02-21T12:43:27;14.66;52.30
84265;DHT22;74412;45.626;5.108;2024-02-21T12:45:54;14.66;51.97
84265;DHT22;74412;45.626;5.108;2024-02-21T12:48:21;14.69;51.19
84265;DHT22;74412;45.626;5.108;2024-02-21T12:50:50;14.72;51.15
84265;DHT22;74412;45.626;5.108;2024-02-21T12:53:17;14.73;51.78
84265;DHT22;74412;45.626;5.108;2024-02-21T12:55:44;14.76;51.32
84265;DHT22;74412;45.626;5.108;2024-02-21T12:58:11;14.79;49.93
84265;DHT22;74412;45.626;5.108;2024-02-21T13:00:39;14.83;50.01
84265;DHT22;74412;45.626;5.108;2024-02-21T13:03:05;14.87;49.96
84265;DHT22;74412;45.626;5.108;2024-02-21T13:05:32;14.90;50.43
84265;DHT22;74412;45.626;5.108;2024-02-21T13:08:00;14.90;48.99
84265;DHT22;74412;45.626;5.108;2024-02-21T13:10:27;14.92;48.51
84265;DHT22;74412;45.626;5.108;2024-02-21T13:12:53;14.95;49.36
84265;DHT22;74412;45.626;5.108;2024-02-21T13:15:20;15.00;49.46
84265;DHT22;74412;45.626;5.108;2024-02-21T13:17:47;15.03;48.09
84265;DHT22;74412;45.626;5.108;2024-02-21T13:20:13;15.10;48.65
84265;DHT22;74412;45.626;5.108;2024-02-21T13:22:40;15.13;48.48
84265;DHT22;74412;45.626;5.108;2024-02-21T13:25:08;15.22;47.88
84265;DHT22;74412;45.626;5.108;2024-02-21T13:27:35;15.28;48.18
84265;DHT22;74412;45.626;5.108;2024-02-21T13:30:02;15.33;45.94
84265;DHT22;74412;45.626;5.108;2024-02-21T13:32:31;15.37;46.39
84265;DHT22;74412;45.626;5.108;2024-02-21T13:34:58;15.40;47.12
84265;DHT22;74412;45.626;5.108;2024-02-21T13:37:26;15.43;46.55
84265;DHT22;74412;45.626;5.108;2024-02-21T13:39:54;15.48;47.01
84265;DHT22;74412;45.626;5.108;2024-02-21T13:42:22;15.51;46.03
84265;DHT22;74412;45.626;5.108;2024-02-21T13:44:52;15.53;46.59
84265;DHT22;74412;45.626;5.108;2024-02-21T13:47:19;15.55;46.70
84265;DHT22;74412;45.626;5.108;2024-02-21T13:49:47;15.54;45.86
84265;DHT22;74412;45.626;5.108;2024-02-21T13:52:13;15.55;45.16
84265;DHT22;74412;45.626;5.108;2024-02-21T13:54:40;15.55;45.40
84265;DHT22;74412;45.626;5.108;2024-02-21T13:57:07;15.55;45.56
84265;DHT22;74412;45.626;5.108;2024-02-21T13:59:35;15.57;44.84
84265;DHT22;74412;45.626;5.108;2024-02-21T14:02:02;15.57;45.16
84265;DHT22;74412;45.626;5.108;2024-02-21T14:04:29;15.60;44.56
84265;DHT22;74412;45.626;5.108;2024-02-21T14:06:56;15.58;44.89
84265;DHT22;74412;45.626;5.108;2024-02-21T14:09:22;15.58;45.42
84265;DHT22;74412;45.626;5.108;2024-02-21T14:11:49;15.60;44.79
84265;DHT22;74412;45.626;5.108;2024-02-21T14:14:16;15.60;44.76
84265;DHT22;74412;45.626;5.108;2024-02-21T14:16:44;15.57;44.30
84265;DHT22;74412;45.626;5.108;2024-02-21T14:19:13;15.57;44.10
84265;DHT22;74412;45.626;5.108;2024-02-21T14:21:39;15.58;44.44
84265;DHT22;74412;45.626;5.108;2024-02-21T14:24:06;15.53;44.16
84265;DHT22;74412;45.626;5.108;2024-02-21T14:26:33;15.55;44.54
84265;DHT22;74412;45.626;5.108;2024-02-21T14:29:01;15.55;44.85
84265;DHT22;74412;45.626;5.108;2024-02-21T14:31:28;15.57;45.23
84265;DHT22;74412;45.626;5.108;2024-02-21T14:33:57;15.55;44.77
84265;DHT22;74412;45.626;5.108;2024-02-21T14:36:23;15.55;44.24
84265;DHT22;74412;45.626;5.108;2024-02-21T14:38:50;15.55;44.89
84265;DHT22;74412;45.626;5.108;2024-02-21T14:41:18;15.57;44.12
84265;DHT22;74412;45.626;5.108;2024-02-21T14:43:45;15.54;44.39
84265;DHT22;74412;45.626;5.108;2024-02-21T14:46:12;15.55;44.01
84265;DHT22;74412;45.626;5.108;2024-02-21T14:48:38;15.55;44.07
84265;DHT22;74412;45.626;5.108;2024-02-21T14:51:06;15.58;44.08
84265;DHT22;74412;45.626;5.108;2024-02-21T14:53:33;15.57;43.26
84265;DHT22;74412;45.626;5.108;2024-02-21T14:56:00;15.60;43.21
84265;DHT22;74412;45.626;5.108;2024-02-21T14:58:26;15.60;43.85
84265;DHT22;74412;45.626;5.108;2024-02-21T15:00:53;15.57;43.11
84265;DHT22;74412;45.626;5.108;2024-02-21T15:03:20;15.58;43.08
84265;DHT22;74412;45.626;5.108;2024-02-21T15:05:47;15.58;42.44
84265;DHT22;74412;45.626;5.108;2024-02-21T15:08:15;15.55;42.68
84265;DHT22;74412;45.626;5.108;2024-02-21T15:10:44;15.57;42.32
84265;DHT22;74412;45.626;5.108;2024-02-21T15:13:11;15.58;42.02
84265;DHT22;74412;45.626;5.108;2024-02-21T15:15:38;15.54;42.14
84265;DHT22;74412;45.626;5.108;2024-02-21T15:18:04;15.54;41.29
84265;DHT22;74412;45.626;5.108;2024-02-21T15:20:31;15.53;41.54
84265;DHT22;74412;45.626;5.108;2024-02-21T15:22:58;15.54;41.35
84265;DHT22;74412;45.626;5.108;2024-02-21T15:25:27;15.53;41.55
84265;DHT22;74412;45.626;5.108;2024-02-21T15:27:55;15.51;41.71
84265;DHT22;74412;45.626;5.108;2024-02-21T15:30:22;15.54;41.36
84265;DHT22;74412;45.626;5.108;2024-02-21T15:32:48;15.53;41.21
84265;DHT22;74412;45.626;5.108;2024-02-21T15:35:15;15.51;41.56
84265;DHT22;74412;45.626;5.108;2024-02-21T15:37:52;15.51;41.45
84265;DHT22;74412;45.626;5.108;2024-02-21T15:40:37;15.50;41.70